LBB weather

Lubbock Preston Smith International Airport
Lubbock, Texas, United States

Public forecast

Using degrees Fahrenheit for public forecast. Weather courtesy of forecast.io.

METAR (pilot weather report)

Retrieved 2019/05/21 09:53 UTC (15 minutes ago):

KLBB 210953Z 26017KT 10SM FEW120 BKN150 BKN170 13/01 A2963 RMK AO2 PK WND 27029/0905 SLP997 T01330006

TAF (pilot weather forecast)

Retrieved 2019/05/21 06:22 UTC (4 hours ago):

TAF KLBB 210520Z 2106/2206 30025G35KT P6SM FEW150 BKN250 FM210900 26007KT P6SM SCT250 FM211400 26030G40KT 6SM BLDU SKC